createdAt,value
2023-03-17T00:02:12.128Z,95.63
2023-03-17T00:04:41.494Z,95.93
2023-03-17T00:07:16.650Z,96.10
2023-03-17T00:09:47.850Z,95.97
2023-03-17T00:12:17.651Z,95.82
2023-03-17T00:14:47.048Z,95.30
2023-03-17T00:17:21.176Z,96.06
2023-03-17T00:19:50.335Z,95.85
2023-03-17T00:22:21.849Z,95.92
2023-03-17T00:24:54.791Z,96.24
2023-03-17T00:27:23.920Z,95.65
2023-03-17T00:29:53.019Z,96.31
2023-03-17T00:32:23.697Z,95.95
2023-03-17T00:34:54.194Z,96.47
2023-03-17T00:37:24.238Z,96.88
2023-03-17T00:39:55.884Z,95.58
2023-03-17T00:42:34.821Z,95.70
2023-03-17T00:45:09.021Z,95.96
2023-03-17T00:47:38.457Z,96.05
2023-03-17T00:50:17.170Z,96.24
2023-03-17T00:52:47.011Z,95.55
2023-03-17T00:55:18.340Z,96.48
2023-03-17T00:57:49.165Z,96.84
2023-03-17T01:00:30.541Z,96.45
2023-03-17T01:03:00.247Z,96.09
2023-03-17T01:05:29.722Z,96.33
2023-03-17T01:07:59.323Z,97.17
2023-03-17T01:10:32.492Z,97.13
2023-03-17T01:13:02.399Z,96.81
2023-03-17T01:15:33.274Z,96.07
2023-03-17T01:18:08.796Z,96.53
2023-03-17T01:20:43.830Z,96.30
2023-03-17T01:23:14.057Z,96.76
2023-03-17T01:25:45.313Z,96.57
2023-03-17T01:28:19.250Z,96.86
2023-03-17T01:30:49.548Z,96.56
2023-03-17T01:33:20.367Z,96.75
2023-03-17T01:35:54.724Z,96.54
2023-03-17T01:38:24.462Z,96.28
2023-03-17T01:40:56.463Z,97.33
2023-03-17T01:46:29.167Z,96.74
2023-03-17T01:49:16.661Z,96.65
2023-03-17T01:51:54.014Z,96.31
2023-03-17T01:54:34.674Z,96.50
2023-03-17T01:57:12.295Z,96.72
2023-03-17T01:59:45.826Z,97.17
2023-03-17T02:02:20.346Z,97.84
2023-03-17T02:04:50.039Z,97.29
2023-03-17T02:07:19.124Z,97.26
2023-03-17T02:09:48.604Z,97.82
2023-03-17T02:12:19.905Z,97.72
2023-03-17T02:14:51.868Z,97.46
2023-03-17T02:17:41.376Z,97.45
2023-03-17T02:20:45.054Z,97.32
2023-03-17T02:23:24.355Z,98.01
2023-03-17T02:25:57.066Z,98.28
2023-03-17T02:28:31.569Z,98.21
2023-03-17T02:31:00.749Z,98.33
2023-03-17T02:33:42.189Z,98.03
2023-03-17T02:36:11.807Z,97.65
2023-03-17T02:38:43.226Z,97.65
2023-03-17T02:41:12.675Z,97.14
2023-03-17T02:43:42.512Z,96.77
2023-03-17T02:46:12.008Z,96.46
2023-03-17T02:48:42.048Z,96.45
2023-03-17T02:51:11.286Z,96.32
2023-03-17T02:53:42.643Z,95.75
2023-03-17T02:56:11.765Z,95.43
2023-03-17T02:58:40.856Z,95.56
2023-03-17T03:01:10.318Z,95.57
2023-03-17T03:03:39.567Z,94.39
2023-03-17T03:06:09.557Z,94.43
2023-03-17T03:08:38.754Z,93.78
2023-03-17T03:11:21.637Z,93.04
2023-03-17T03:13:50.860Z,92.75
2023-03-17T03:16:20.463Z,92.26
2023-03-17T03:18:50.489Z,92.34
2023-03-17T03:21:19.630Z,92.31
2023-03-17T03:23:54.470Z,91.50
2023-03-17T03:29:01.133Z,91.75
2023-03-17T03:31:30.305Z,91.03
2023-03-17T03:34:09.586Z,89.29
2023-03-17T03:36:38.746Z,90.07
2023-03-17T03:39:08.292Z,90.20
2023-03-17T03:41:39.752Z,90.14
2023-03-17T03:44:08.844Z,89.81
2023-03-17T03:46:38.077Z,89.48
2023-03-17T03:49:07.347Z,88.86
2023-03-17T03:51:36.389Z,88.73
2023-03-17T03:54:05.822Z,88.02
2023-03-17T03:56:40.204Z,88.07
2023-03-17T03:59:16.361Z,87.82
2023-03-17T04:01:45.760Z,87.30
2023-03-17T04:04:15.022Z,87.33
2023-03-17T04:06:44.266Z,87.41
2023-03-17T04:09:13.723Z,87.00
2023-03-17T04:11:42.805Z,87.59
2023-03-17T04:14:12.218Z,86.44
2023-03-17T04:19:23.301Z,85.51
2023-03-17T04:21:57.370Z,85.50
2023-03-17T04:24:27.230Z,84.24
2023-03-17T04:26:57.068Z,85.22
2023-03-17T04:29:31.871Z,83.94
2023-03-17T04:32:03.122Z,82.30
2023-03-17T04:34:44.205Z,82.28
2023-03-17T04:37:13.915Z,81.17
2023-03-17T04:39:43.001Z,81.50
2023-03-17T04:42:12.637Z,81.69
2023-03-17T04:44:42.596Z,80.71
2023-03-17T04:47:14.109Z,80.35
2023-03-17T04:49:49.804Z,81.07
2023-03-17T04:52:18.955Z,81.16
2023-03-17T04:54:48.377Z,81.08
2023-03-17T04:57:24.504Z,79.47
2023-03-17T04:59:53.820Z,79.38
2023-03-17T05:02:24.907Z,79.25
2023-03-17T05:04:54.248Z,79.67
2023-03-17T05:07:23.269Z,78.45
2023-03-17T05:09:52.476Z,78.68
2023-03-17T05:12:21.664Z,78.85
2023-03-17T05:14:55.923Z,77.89
2023-03-17T05:17:27.063Z,77.01
2023-03-17T05:19:56.194Z,77.24
2023-03-17T05:22:25.761Z,76.85
2023-03-17T05:25:00.106Z,75.42
2023-03-17T05:27:30.993Z,75.20
2023-03-17T05:30:00.275Z,75.33
2023-03-17T05:35:06.856Z,73.85
2023-03-17T05:37:35.950Z,73.26
2023-03-17T05:40:05.386Z,72.73
2023-03-17T05:42:40.489Z,72.97
2023-03-17T05:45:11.300Z,71.92
2023-03-17T05:47:42.703Z,71.55
2023-03-17T05:50:14.534Z,70.44
2023-03-17T05:52:56.164Z,71.70
2023-03-17T05:55:25.730Z,71.00
2023-03-17T05:57:54.763Z,69.85
2023-03-17T06:00:30.538Z,69.92
2023-03-17T06:03:07.313Z,68.18
2023-03-17T06:05:36.732Z,67.75
2023-03-17T06:08:06.875Z,68.46
2023-03-17T06:10:36.258Z,67.22
2023-03-17T06:13:05.621Z,66.94
2023-03-17T06:15:36.488Z,65.77
2023-03-17T06:18:07.895Z,67.29
2023-03-17T06:20:37.101Z,66.44
2023-03-17T06:23:06.386Z,65.09
2023-03-17T06:25:36.636Z,65.37
2023-03-17T06:28:06.900Z,65.60
2023-03-17T06:30:46.228Z,65.41
2023-03-17T06:33:18.661Z,65.11
2023-03-17T06:35:54.394Z,65.31
2023-03-17T06:38:24.334Z,65.75
2023-03-17T06:40:53.562Z,64.88
2023-03-17T06:43:29.180Z,64.85
2023-03-17T06:45:58.378Z,64.68
2023-03-17T06:48:35.845Z,64.29
2023-03-17T06:51:05.186Z,63.62
2023-03-17T06:53:34.290Z,63.69
2023-03-17T06:56:20.059Z,64.55
2023-03-17T06:58:56.510Z,62.95
2023-03-17T07:01:25.681Z,63.94
2023-03-17T07:03:57.236Z,64.18
2023-03-17T07:06:26.515Z,64.48
2023-03-17T07:08:56.193Z,63.52
2023-03-17T07:11:25.870Z,62.23
2023-03-17T07:14:00.994Z,62.86
2023-03-17T07:16:35.398Z,62.69
2023-03-17T07:19:06.921Z,61.65
2023-03-17T07:21:41.174Z,61.66
2023-03-17T07:24:10.843Z,61.20
2023-03-17T07:26:40.007Z,60.71
2023-03-17T07:29:09.422Z,62.09
2023-03-17T07:31:44.252Z,62.42
2023-03-17T07:34:16.005Z,60.69
2023-03-17T07:36:50.319Z,60.45
2023-03-17T07:39:19.566Z,60.37
2023-03-17T07:41:54.880Z,59.07
2023-03-17T07:44:24.689Z,59.40
2023-03-17T07:46:54.402Z,60.02
2023-03-17T07:49:40.479Z,60.29
2023-03-17T07:52:15.843Z,60.80
2023-03-17T07:57:29.697Z,59.64
2023-03-17T08:00:04.005Z,59.72
2023-03-17T08:02:48.211Z,59.73
2023-03-17T08:05:25.094Z,59.22
2023-03-17T08:08:04.880Z,58.82
2023-03-17T08:10:34.578Z,59.11
2023-03-17T08:13:04.255Z,59.31
2023-03-17T08:15:33.636Z,58.90
2023-03-17T08:18:09.201Z,59.10
2023-03-17T08:20:41.603Z,57.81
2023-03-17T08:23:15.980Z,58.54
2023-03-17T08:25:45.393Z,58.57
2023-03-17T08:28:19.715Z,58.88
2023-03-17T08:30:50.677Z,59.03
2023-03-17T08:36:02.162Z,58.54
2023-03-17T08:38:31.320Z,57.93
2023-03-17T08:41:02.712Z,57.31
2023-03-17T08:43:31.979Z,57.12
2023-03-17T08:46:09.742Z,57.23
2023-03-17T08:48:39.390Z,57.34
2023-03-17T08:51:18.309Z,56.70
2023-03-17T08:53:50.381Z,57.67
2023-03-17T08:58:55.417Z,56.17
2023-03-17T09:01:25.166Z,54.79
2023-03-17T09:03:55.725Z,55.23
2023-03-17T09:06:31.846Z,54.13
2023-03-17T09:09:01.046Z,54.23
2023-03-17T09:11:32.398Z,52.65
2023-03-17T09:14:01.747Z,53.25
2023-03-17T09:16:35.772Z,54.62
2023-03-17T09:19:05.482Z,53.72
2023-03-17T09:21:36.667Z,54.21
2023-03-17T09:24:06.923Z,54.87
2023-03-17T09:26:42.354Z,54.90
2023-03-17T09:31:47.135Z,53.56
2023-03-17T09:34:16.220Z,53.81
2023-03-17T09:36:47.495Z,53.60
2023-03-17T09:39:16.700Z,52.80
2023-03-17T09:41:59.167Z,53.25
2023-03-17T09:44:40.784Z,52.49
2023-03-17T09:47:33.065Z,52.51
2023-03-17T09:50:10.228Z,52.46
2023-03-17T09:52:41.388Z,51.64
2023-03-17T09:55:26.615Z,51.45
2023-03-17T09:58:03.053Z,50.91
2023-03-17T10:00:33.112Z,50.58
2023-03-17T10:03:02.164Z,50.84
2023-03-17T10:05:44.329Z,49.79
2023-03-17T10:08:31.154Z,49.82
2023-03-17T10:11:12.195Z,50.13
2023-03-17T10:13:55.267Z,49.00
2023-03-17T10:16:37.399Z,49.27
2023-03-17T10:19:28.786Z,48.34
2023-03-17T10:22:07.164Z,48.31
2023-03-17T10:24:44.984Z,45.88
2023-03-17T10:27:18.605Z,44.78
2023-03-17T10:29:48.785Z,45.38
2023-03-17T10:32:22.965Z,40.74
2023-03-17T10:34:52.088Z,41.50
2023-03-17T10:37:24.515Z,42.36
2023-03-17T10:39:59.439Z,42.64
2023-03-17T10:42:35.227Z,41.71
2023-03-17T10:45:16.513Z,40.81
2023-03-17T10:47:54.707Z,40.58
2023-03-17T10:50:28.152Z,40.30
2023-03-17T10:53:01.097Z,38.19
2023-03-17T10:55:44.214Z,39.00
2023-03-17T10:58:17.858Z,37.40
2023-03-17T11:00:56.878Z,37.57
2023-03-17T11:03:29.545Z,37.57
2023-03-17T11:06:03.487Z,38.96
2023-03-17T11:08:35.258Z,38.47
2023-03-17T11:11:07.962Z,38.02
2023-03-17T11:13:37.264Z,39.02
2023-03-17T11:16:19.429Z,38.76
2023-03-17T11:18:56.084Z,39.31
2023-03-17T11:21:30.491Z,38.48
2023-03-17T11:24:06.081Z,37.31
2023-03-17T11:26:59.804Z,36.16
2023-03-17T11:29:52.607Z,36.76
2023-03-17T11:32:31.153Z,33.86
2023-03-17T11:38:24.497Z,36.47
2023-03-17T11:41:18.882Z,35.01
2023-03-17T11:44:02.808Z,35.59
2023-03-17T11:46:38.612Z,36.39
2023-03-17T11:49:14.191Z,35.42
2023-03-17T11:51:54.131Z,35.49
2023-03-17T11:54:44.141Z,36.41
2023-03-17T11:57:22.190Z,37.26
2023-03-17T11:59:57.539Z,36.28
2023-03-17T12:02:40.417Z,36.83
2023-03-17T12:05:14.959Z,37.52
2023-03-17T12:07:50.937Z,36.88
2023-03-17T12:10:25.200Z,33.59
2023-03-17T12:12:59.429Z,33.52
2023-03-17T12:15:38.999Z,33.72
2023-03-17T12:18:20.246Z,34.21
2023-03-17T12:20:56.351Z,33.80
2023-03-17T12:23:37.787Z,33.28
2023-03-17T12:26:13.582Z,33.43
2023-03-17T12:28:49.637Z,33.74
2023-03-17T12:31:28.633Z,33.55
2023-03-17T12:34:04.964Z,34.32
2023-03-17T12:36:34.982Z,34.56
2023-03-17T12:39:10.729Z,34.61
2023-03-17T12:42:08.581Z,34.41
2023-03-17T12:45:06.740Z,34.51
2023-03-17T12:52:58.864Z,33.71
2023-03-17T12:55:33.041Z,32.66
2023-03-17T12:58:04.745Z,33.50
2023-03-17T13:00:39.161Z,32.57
2023-03-17T13:03:24.110Z,33.72
2023-03-17T13:06:00.352Z,32.28
2023-03-17T13:08:35.877Z,31.95
2023-03-17T13:11:39.602Z,33.42
2023-03-17T13:14:17.959Z,31.10
2023-03-17T13:16:48.545Z,32.31
2023-03-17T13:19:39.537Z,31.71
2023-03-17T13:22:31.611Z,31.22
2023-03-17T13:25:20.326Z,30.02
2023-03-17T13:27:49.709Z,30.51
2023-03-17T13:31:00.720Z,30.82
2023-03-17T13:33:33.329Z,30.47
2023-03-17T13:36:34.606Z,30.70
2023-03-17T13:39:41.267Z,30.17
2023-03-17T13:42:24.561Z,29.75
2023-03-17T13:45:18.281Z,29.86
2023-03-17T13:47:47.867Z,28.34
2023-03-17T13:50:22.917Z,28.73
2023-03-17T13:52:59.363Z,29.20
2023-03-17T13:55:37.456Z,29.62
2023-03-17T13:58:33.400Z,30.31
2023-03-17T14:01:07.257Z,29.59
2023-03-17T14:03:45.557Z,29.88
2023-03-17T14:06:19.585Z,29.97
2023-03-17T14:08:52.889Z,29.66
2023-03-17T14:11:28.895Z,29.79
2023-03-17T14:14:26.071Z,29.10
2023-03-17T14:17:06.883Z,29.94
2023-03-17T14:19:40.966Z,30.17
2023-03-17T14:22:29.219Z,30.53
2023-03-17T14:25:08.642Z,30.33
2023-03-17T14:27:38.722Z,30.51
2023-03-17T14:30:20.168Z,30.50
2023-03-17T14:32:52.113Z,30.78
2023-03-17T14:35:22.063Z,31.38
2023-03-17T14:37:51.576Z,31.53
2023-03-17T14:40:33.814Z,31.92
2023-03-17T14:43:14.508Z,32.13
2023-03-17T14:45:54.255Z,32.37
2023-03-17T14:48:32.202Z,32.75
2023-03-17T14:51:07.097Z,33.72
2023-03-17T14:53:38.511Z,33.13
2023-03-17T14:56:15.430Z,33.01
2023-03-17T14:58:52.527Z,33.79
2023-03-17T15:01:39.667Z,33.80
2023-03-17T15:04:13.811Z,34.06
2023-03-17T15:06:56.127Z,34.47
2023-03-17T15:09:28.611Z,33.72
2023-03-17T15:12:08.040Z,33.98
2023-03-17T15:14:40.454Z,33.90
2023-03-17T15:17:25.364Z,34.13
2023-03-17T15:20:07.856Z,33.71
2023-03-17T15:22:44.366Z,34.39
2023-03-17T15:25:29.014Z,33.73
2023-03-17T15:27:58.766Z,33.33
2023-03-17T15:30:37.324Z,34.19
2023-03-17T15:35:59.647Z,34.75
2023-03-17T15:38:29.693Z,34.09
2023-03-17T15:41:04.503Z,34.42
2023-03-17T15:43:34.327Z,34.08
2023-03-17T15:46:05.906Z,34.46
2023-03-17T15:48:38.536Z,34.54
2023-03-17T15:51:12.968Z,34.82
2023-03-17T15:53:42.077Z,34.63
2023-03-17T15:56:18.483Z,34.70
2023-03-17T15:58:48.704Z,35.30
2023-03-17T16:01:27.315Z,34.93
2023-03-17T16:03:58.885Z,34.96
2023-03-17T16:06:36.579Z,34.70
2023-03-17T16:09:07.661Z,34.66
2023-03-17T16:11:38.828Z,34.74
2023-03-17T16:14:09.388Z,35.20
2023-03-17T16:16:40.430Z,35.58
2023-03-17T16:19:19.647Z,34.93
2023-03-17T16:21:49.539Z,35.82
2023-03-17T16:24:22.311Z,36.72
2023-03-17T16:27:01.628Z,35.88
2023-03-17T16:29:31.152Z,36.31
2023-03-17T16:32:00.270Z,36.65
2023-03-17T16:34:32.767Z,36.73
2023-03-17T16:37:02.703Z,36.70
2023-03-17T16:39:33.207Z,37.17
2023-03-17T16:44:38.086Z,37.10
2023-03-17T16:47:07.767Z,37.20
2023-03-17T16:49:38.933Z,38.00
2023-03-17T16:52:18.252Z,37.81
2023-03-17T16:54:47.393Z,37.64
2023-03-17T16:57:16.513Z,37.53
2023-03-17T16:59:47.792Z,37.71
2023-03-17T17:02:17.992Z,37.98
2023-03-17T17:04:49.292Z,38.32
2023-03-17T17:07:18.737Z,38.94
2023-03-17T17:09:52.924Z,38.87
2023-03-17T17:12:27.312Z,38.81
2023-03-17T17:14:56.419Z,39.31
2023-03-17T17:17:25.680Z,39.29
2023-03-17T17:19:56.758Z,40.02
2023-03-17T17:22:26.354Z,39.42
2023-03-17T17:24:55.682Z,40.02
2023-03-17T17:27:30.053Z,39.67
2023-03-17T17:29:59.076Z,38.94
2023-03-17T17:32:28.368Z,39.67
2023-03-17T17:37:42.106Z,39.58
2023-03-17T17:40:15.881Z,39.21
2023-03-17T17:42:46.052Z,39.01
2023-03-17T17:45:16.092Z,38.88
2023-03-17T17:47:46.072Z,39.51
2023-03-17T17:50:25.906Z,39.10
2023-03-17T17:53:05.194Z,39.60
2023-03-17T17:55:35.443Z,39.01
2023-03-17T17:58:11.232Z,39.61
2023-03-17T18:00:52.214Z,39.47
2023-03-17T18:03:24.784Z,40.19
2023-03-17T18:05:58.670Z,39.79
2023-03-17T18:08:28.556Z,40.24
2023-03-17T18:10:57.686Z,40.25
2023-03-17T18:13:32.044Z,40.58
2023-03-17T18:16:01.340Z,40.50
2023-03-17T18:18:32.141Z,41.26
2023-03-17T18:21:03.191Z,40.91
2023-03-17T18:23:34.293Z,41.18
2023-03-17T18:26:05.571Z,40.57
2023-03-17T18:28:36.367Z,41.19
2023-03-17T18:31:10.080Z,41.04
2023-03-17T18:33:40.417Z,40.16
2023-03-17T18:36:12.511Z,40.92
2023-03-17T18:38:41.778Z,41.61
2023-03-17T18:41:11.952Z,41.19
2023-03-17T18:46:21.028Z,41.17
2023-03-17T18:48:50.579Z,41.11
2023-03-17T18:53:57.205Z,41.14
2023-03-17T18:56:31.977Z,41.75
2023-03-17T18:59:01.903Z,41.61
2023-03-17T19:01:31.202Z,41.29
2023-03-17T19:04:00.535Z,41.57
2023-03-17T19:06:31.800Z,41.17
2023-03-17T19:09:01.925Z,41.26
2023-03-17T19:11:38.817Z,41.58
2023-03-17T19:14:08.073Z,41.57
2023-03-17T19:16:37.979Z,41.73
2023-03-17T19:19:12.438Z,41.63
2023-03-17T19:21:43.661Z,41.60
2023-03-17T19:24:14.052Z,41.88
2023-03-17T19:26:43.472Z,42.59
2023-03-17T19:29:12.678Z,42.00
2023-03-17T19:31:42.916Z,42.55
2023-03-17T19:34:14.875Z,42.36
2023-03-17T19:36:48.355Z,42.29
2023-03-17T19:39:18.253Z,41.76
2023-03-17T19:41:49.719Z,41.79
2023-03-17T19:44:18.872Z,41.84
2023-03-17T19:46:48.109Z,41.61
2023-03-17T19:49:17.638Z,42.30
2023-03-17T19:51:49.147Z,42.39
2023-03-17T19:54:18.697Z,42.37
2023-03-17T19:56:47.844Z,42.87
2023-03-17T19:59:18.663Z,42.97
2023-03-17T20:01:53.696Z,42.67
2023-03-17T20:04:23.055Z,43.01
2023-03-17T20:06:55.306Z,43.53
2023-03-17T20:09:25.717Z,43.62
2023-03-17T20:11:55.688Z,43.71
2023-03-17T20:14:25.858Z,43.21
2023-03-17T20:16:55.361Z,43.77
2023-03-17T20:19:24.454Z,44.23
2023-03-17T20:21:57.991Z,44.55
2023-03-17T20:24:29.020Z,44.54
2023-03-17T20:26:59.088Z,44.34
2023-03-17T20:29:38.453Z,44.62
2023-03-17T20:32:07.993Z,45.36
2023-03-17T20:34:44.025Z,43.73
2023-03-17T20:37:15.306Z,44.38
2023-03-17T20:39:44.622Z,44.15
2023-03-17T20:42:20.690Z,44.21
2023-03-17T20:44:52.630Z,44.57
2023-03-17T20:47:22.287Z,45.05
2023-03-17T20:49:53.156Z,44.47
2023-03-17T20:52:24.192Z,44.48
2023-03-17T20:55:05.575Z,44.10
2023-03-17T20:57:34.976Z,44.35
2023-03-17T21:00:04.770Z,44.72
2023-03-17T21:02:34.515Z,44.66
2023-03-17T21:05:03.705Z,45.53
2023-03-17T21:07:46.631Z,45.20
2023-03-17T21:10:16.537Z,45.27
2023-03-17T21:12:45.977Z,45.91
2023-03-17T21:15:16.319Z,45.73
2023-03-17T21:17:50.650Z,45.70
2023-03-17T21:20:20.728Z,45.70
2023-03-17T21:22:52.042Z,45.49
2023-03-17T21:25:21.478Z,45.89
2023-03-17T21:27:51.780Z,46.59
2023-03-17T21:32:56.338Z,46.26
2023-03-17T21:35:26.341Z,47.25
2023-03-17T21:38:08.987Z,47.49
2023-03-17T21:40:43.475Z,47.66
2023-03-17T21:43:13.113Z,47.44
2023-03-17T21:45:43.739Z,47.00
2023-03-17T21:48:12.899Z,47.33
2023-03-17T21:53:28.917Z,47.70
2023-03-17T21:56:03.569Z,48.20
2023-03-17T21:58:37.930Z,47.76
2023-03-17T22:01:07.270Z,48.08
2023-03-17T22:03:39.057Z,48.55
2023-03-17T22:06:14.383Z,48.75
2023-03-17T22:08:46.148Z,48.44
2023-03-17T22:11:17.230Z,48.57
2023-03-17T22:13:51.826Z,49.23
2023-03-17T22:16:21.229Z,48.97
2023-03-17T22:18:51.218Z,49.08
2023-03-17T22:21:26.075Z,49.02
2023-03-17T22:23:57.447Z,48.87
2023-03-17T22:26:27.751Z,49.74
2023-03-17T22:28:57.918Z,49.98
2023-03-17T22:31:34.304Z,49.35
2023-03-17T22:34:05.014Z,49.32
2023-03-17T22:36:39.238Z,49.24
2023-03-17T22:39:10.474Z,49.93
2023-03-17T22:41:45.689Z,49.72
2023-03-17T22:44:19.924Z,50.47
2023-03-17T22:49:23.823Z,50.38
2023-03-17T22:51:53.416Z,50.88
2023-03-17T22:54:24.684Z,50.80
2023-03-17T22:56:53.743Z,51.11
2023-03-17T22:59:22.806Z,50.88
2023-03-17T23:01:57.001Z,51.53
2023-03-17T23:04:26.377Z,51.49
2023-03-17T23:06:55.930Z,51.70
2023-03-17T23:09:26.985Z,51.38
2023-03-17T23:11:56.189Z,52.13
2023-03-17T23:14:26.116Z,51.63
2023-03-17T23:16:55.412Z,51.85
2023-03-17T23:19:24.765Z,51.94
2023-03-17T23:24:30.640Z,52.29
2023-03-17T23:26:59.910Z,52.21
2023-03-17T23:29:40.210Z,52.31
2023-03-17T23:32:09.742Z,53.44
2023-03-17T23:34:39.217Z,52.93
2023-03-17T23:37:08.465Z,52.91
2023-03-17T23:39:50.231Z,53.48
2023-03-17T23:42:24.434Z,53.84
2023-03-17T23:44:53.836Z,53.31
2023-03-17T23:47:23.520Z,53.34
2023-03-17T23:50:03.883Z,53.79
2023-03-17T23:52:33.417Z,54.55
2023-03-17T23:55:05.806Z,54.03
2023-03-17T23:57:36.306Z,53.87
